Latest Coastal Weather Observations for Wynyard

IDT60701

Issued at 2:51 pm EDT Sunday 7 February 2016 (issued every 10 minutes, with the page automatically refreshed every 10 minutes)

About coastal observations | Map of coastal stations | Coastal observations for TAS | Marine services | Other Formats
Station Details ID: 091107 Name: WYNYARD AIRPORT Lat: -41.00 Lon: 145.73 Height: 12.0 m
Data from the previous 72 hours. | See also: Recent months at Wynyard
Date/Time
EDT
Temp

°C
Wind Pressure Rain
since 9am
mm
Weather Cloud Vis
km
Sea
Height
m
Swell
Dir
 
Speed
knots
Gust
knots
hPa Trend Height
m
Period
s
Dir
07/02:30pm 22.5 NNE 10 12 1017.6 - 0.0 - - 10 - - - -
07/02:00pm 22.7 NE 10 14 1017.5 - 0.0 - - 10 - - - -
07/01:30pm 23.0 NE 11 14 1017.6 - 0.0 - - 10 - - - -
07/01:00pm 22.8 NE 12 15 1017.6 - 0.0 - - 10 - - - -
07/12:30pm 23.1 NE 13 15 1017.8 - 0.0 - - 10 - - - -
07/12:00pm 22.5 ENE 11 14 1018.2 - 0.0 - - 10 - - - -
07/11:30am 22.4 ENE 11 15 1018.2 - 0.0 - Partly cloudy 10 - - - -
07/11:00am 22.3 E 10 15 1018.1 - 0.0 - Cloudy 10 - - - -
07/10:30am 21.4 ENE 11 15 1018.0 - 0.0 - Cloudy 10 - - - -
07/10:00am 20.9 E 9 13 1018.1 - 0.0 - Cloudy 10 - - - -
07/09:30am 21.0 E 9 13 1018.0 - 0.0 - Cloudy 10 - - - -
07/09:00am 20.5 ENE 8 12 1018.1 - 0.0 - Mostly cloudy 10 - - - -
07/08:30am 20.0 E 8 12 1017.7 - 0.0 - Cloudy 10 - - - -
07/08:00am 19.6 E 7 11 1017.6 - 0.0 - Cloudy 10 - - - -
07/07:30am 19.4 E 5 8 1017.6 - 0.0 - Partly cloudy 10 - - - -
07/07:00am 18.7 E 5 7 1017.4 - 0.0 - Partly cloudy 10 - - - -
07/06:30am 18.4 E 5 8 1017.1 - 0.0 - Partly cloudy 10 - - - -
07/06:28am 18.3 E 5 8 1017.1 - 0.0 - Partly cloudy 10 - - - -
07/06:00am 18.6 E 6 9 1016.8 - 0.0 - Cloudy 10 - - - -
07/05:50am 18.5 E 6 9 1016.7 - 0.0 - Partly cloudy 10 - - - -
07/05:46am 18.4 E 6 8 1016.7 - 0.0 - Partly cloudy 10 - - - -
07/05:30am 18.4 E 5 7 1016.7 - 0.0 - Partly cloudy 10 - - - -
07/05:08am 18.5 ENE 6 10 1016.6 - 0.0 - Partly cloudy 10 - - - -
07/05:00am 18.5 ENE 6 10 1016.6 - 0.0 - Partly cloudy 10 - - - -
07/04:30am 18.6 ENE 7 9 1016.6 - 0.0 - - 10 - - - -
07/04:00am 18.7 ENE 7 10 1016.9 - 0.0 - Partly cloudy 10 - - - -
07/03:30am 19.2 ENE 8 12 1017.2 - 0.0 - Partly cloudy 10 - - - -
07/03:00am 19.4 ENE 7 11 1017.3 - 0.0 - Mostly cloudy 10 - - - -
07/02:30am 19.3 ENE 7 9 1017.4 - 0.0 - Partly cloudy 10 - - - -
07/02:00am 19.4 ENE 8 11 1017.5 - 0.0 - Partly cloudy 10 - - - -
07/01:57am 19.4 ENE 8 11 1017.5 - 0.0 - Partly cloudy 10 - - - -
07/01:32am 19.1 E 7 11 1017.5 - 0.0 - Partly cloudy 10 - - - -
07/01:30am 19.1 E 7 11 1017.5 - 0.0 - Partly cloudy 10 - - - -
07/01:00am 18.5 E 5 8 1017.7 - 0.0 - Partly cloudy 10 - - - -
07/12:30am 17.5 SE 6 8 1017.8 - 0.0 - Partly cloudy 10 - - - -
07/12:19am 17.7 SE 6 8 1017.9 - 0.0 - Partly cloudy 10 - - - -
07/12:00am 17.7 SE 6 8 1018.0 - 0.0 - Partly cloudy 10 - - - -
 
Date/Time
EDT
Temp

°C
Wind Pressure Rain
since 9am
mm
Weather Cloud Vis
km
Sea
Height
m
Swell
Dir
 
Speed
knots
Gust
knots
hPa Trend Height
m
Period
s
Dir
06/11:41pm 17.8 SE 6 8 1018.0 - 0.0 - Partly cloudy 10 - - - -
06/11:30pm 17.7 SE 6 8 1018.1 - 0.0 - Partly cloudy 10 - - - -
06/11:00pm 16.7 SE 5 6 1018.2 - 0.0 - Partly cloudy 10 - - - -
06/10:30pm 18.2 E 5 7 1018.2 - 0.0 - Partly cloudy 10 - - - -
06/10:00pm 17.7 ESE 6 9 1018.3 - 0.0 - - 10 - - - -
06/09:30pm 17.3 ESE 4 5 1018.2 - 0.0 - - 10 - - - -
06/09:00pm 18.7 ESE 7 8 1018.0 - 0.0 - - 10 - - - -
06/08:30pm 19.4 E 6 9 1017.8 - 0.0 - - 10 - - - -
06/08:00pm 20.1 E 6 9 1017.9 - 0.0 - Partly cloudy 10 - - - -
06/07:30pm 20.5 E 7 11 1017.8 - 0.0 - - 10 - - - -
06/07:00pm 20.6 E 8 11 1017.7 - 0.0 - - 10 - - - -
06/06:30pm 21.0 E 9 13 1017.7 - 0.0 - - 10 - - - -
06/06:00pm 21.4 E 10 14 1017.8 - 0.0 - - 10 - - - -
06/05:30pm 21.5 E 10 14 1017.7 - 0.0 - - 10 - - - -
06/05:00pm 21.5 E 11 15 1017.8 - 0.0 - - 10 - - - -
06/04:30pm 21.9 E 11 17 1018.0 - 0.0 - Partly cloudy 10 - - - -
06/04:00pm 21.7 E 10 15 1018.5 - 0.0 - Cloudy 10 - - - -
06/03:30pm 21.3 E 10 14 1018.8 - 0.0 - Cloudy 10 - - - -
06/03:00pm 21.2 E 10 15 1018.9 - 0.0 - Cloudy 10 - - - -
06/02:30pm 21.8 E 11 16 1019.1 - 0.0 - Cloudy 10 - - - -
06/02:00pm 21.4 E 12 17 1019.4 - 0.0 - Partly cloudy 10 - - - -
06/01:30pm 21.7 E 13 19 1019.5 - 0.0 - Partly cloudy 10 - - - -
06/01:00pm 21.8 E 11 17 1019.7 - 0.0 - Partly cloudy 10 - - - -
06/12:30pm 20.8 E 11 17 1019.9 - 0.0 - Cloudy 10 - - - -
06/12:00pm 20.6 ENE 10 15 1020.2 - 0.0 - Cloudy 10 - - - -
06/11:30am 20.5 E 10 17 1020.5 - 0.0 - Cloudy 10 - - - -
06/11:00am 20.6 E 10 15 1020.7 - 0.0 - Cloudy 10 - - - -
06/10:30am 20.2 E 11 16 1020.8 - 0.0 - Partly cloudy 10 - - - -
06/10:00am 20.1 E 9 13 1020.9 - 0.0 - Partly cloudy 10 - - - -
06/09:30am 20.3 ENE 11 16 1021.0 - 0.0 - Cloudy 10 - - - -
06/09:00am 19.9 ENE 11 16 1020.9 - 0.0 - Cloudy 10 - - - -
06/08:30am 19.5 ENE 10 15 1020.8 - 0.0 - Partly cloudy 10 - - - -
06/08:00am 19.4 ENE 11 15 1020.4 - 0.0 - Partly cloudy 10 - - - -
06/07:30am 19.4 ENE 11 17 1020.1 - 0.0 - Cloudy 10 - - - -
06/07:00am 19.1 ENE 11 16 1020.1 - 0.0 - Partly cloudy 10 - - - -
06/06:30am 19.0 ENE 11 16 1019.8 - 0.0 - Partly cloudy 10 - - - -
06/06:00am 19.0 NE 13 19 1019.6 - 0.0 - Cloudy 10 - - - -
06/05:30am 19.2 NE 11 16 1019.7 - 0.0 - Partly cloudy 10 - - - -
06/05:00am 19.1 NE 11 14 1019.8 - 0.0 - Partly cloudy 10 - - - -
06/04:30am 18.8 NE 12 17 1020.0 - 0.0 - Partly cloudy 9 - - - -
06/04:00am 19.3 NE 12 18 1020.0 - 0.0 - Partly cloudy 10 - - - -
06/03:30am 19.0 ESE 8 10 1020.3 - 0.0 - Partly cloudy 10 - - - -
06/03:00am 19.4 E 7 10 1020.5 - 0.0 - Cloudy 10 - - - -
06/02:30am 19.4 ENE 6 9 1020.9 - 0.0 - Partly cloudy 10 - - - -
06/02:00am 19.3 E 5 7 1021.2 - 0.0 - Partly cloudy 10 - - - -
06/01:30am 19.3 E 6 11 1021.6 - 0.0 - Partly cloudy 10 - - - -
06/01:00am 19.3 E 5 8 1021.8 - 0.0 - Partly cloudy 10 - - - -
06/12:30am 18.8 ENE 4 6 1022.1 - 0.0 - Cloudy 10 - - - -
06/12:00am 18.3 SE 3 5 1022.0 - 0.0 - Cloudy 10 - - - -
 
Date/Time
EDT
Temp

°C
Wind Pressure Rain
since 9am
mm
Weather Cloud Vis
km
Sea
Height
m
Swell
Dir
 
Speed
knots
Gust
knots
hPa Trend Height
m
Period
s
Dir
05/11:30pm 18.8 SSE 3 4 1022.1 - 0.0 - Cloudy 10 - - - -
05/11:00pm 18.8 S 3 3 1022.3 - 0.0 - Cloudy 10 - - - -
05/10:30pm 18.8 CALM 0 0 1022.4 - 0.0 - Cloudy 10 - - - -
05/10:00pm 18.6 CALM 0 0 1022.3 - 0.0 - Cloudy 10 - - - -
05/09:30pm 18.2 SSW 3 3 1022.2 - 0.0 - Partly cloudy 10 - - - -
05/09:00pm 18.1 WSW 4 5 1022.0 - 0.0 - - 10 - - - -
05/08:30pm 19.5 NNW 4 5 1021.7 - 0.0 - - 10 - - - -
05/08:00pm 20.0 NNW 4 5 1021.5 - 0.0 - - 10 - - - -
05/07:30pm 20.5 NNW 5 7 1021.3 - 0.0 - - 10 - - - -
05/07:00pm 20.8 NNE 8 10 1021.0 - 0.0 - - 10 - - - -
05/06:30pm 20.8 NNE 9 11 1020.9 - 0.0 - - 10 - - - -
05/06:00pm 21.2 NNE 9 12 1020.9 - 0.0 - - 10 - - - -
05/05:30pm 21.0 N 9 13 1021.1 - 0.0 - - 10 - - - -
05/05:00pm 22.0 NNE 10 13 1021.3 - 0.0 - - 10 - - - -
05/04:30pm 22.2 NNE 9 13 1021.3 - 0.0 - - 10 - - - -
05/04:00pm 21.9 NNE 10 13 1021.5 - 0.0 - - 10 - - - -
05/03:30pm 23.0 NNE 9 12 1021.7 - 0.0 - - 10 - - - -
05/03:00pm 22.1 NNE 10 13 1021.9 - 0.0 - - 10 - - - -
05/02:30pm 22.0 NE 10 13 1022.1 - 0.0 - - 10 - - - -
05/02:00pm 22.1 NNE 10 12 1022.5 - 0.0 - - 10 - - - -
05/01:30pm 22.3 NNE 9 12 1022.7 - 0.0 - Partly cloudy 10 - - - -
05/01:00pm 22.1 NE 10 13 1022.9 - 0.0 - - 10 - - - -
05/12:30pm 22.0 NNE 9 12 1023.1 - 0.0 - Partly cloudy 10 - - - -
05/12:00pm 22.5 NNE 10 12 1023.3 - 0.0 - Partly cloudy 10 - - - -
05/11:30am 22.4 NNE 10 12 1023.4 - 0.0 - Partly cloudy 10 - - - -
05/11:00am 22.1 NE 8 12 1023.2 - 0.0 - - 10 - - - -
05/10:48am 21.7 NNE 7 9 1023.2 - 0.0 - Partly cloudy 10 - - - -
05/10:30am 22.0 NNW 3 6 1023.1 - 0.0 - Partly cloudy 10 - - - -
05/10:18am 21.2 W 4 7 1023.1 - 0.0 - Partly cloudy 10 - - - -
05/10:00am 20.0 WNW 4 5 1023.1 - 0.0 - Partly cloudy 10 - - - -
05/09:30am 19.1 WNW 3 4 1023.0 - 0.0 - Partly cloudy 10 - - - -
05/09:00am 17.5 WSW 3 4 1023.0 - 0.2 Recent precip. Cloudy 10 - - - -
05/08:36am 16.5 W 5 7 1022.8 - 0.2 - Partly cloudy 10 - - - -
05/08:30am 16.2 SW 6 6 1022.8 - 0.2 - Partly cloudy 9 - - - -
05/08:27am 16.0 SW 5 6 1022.7 - 0.2 - Partly cloudy 8 - - - -
05/08:03am 15.5 WNW 1 4 1022.5 - 0.0 - Partly cloudy 5 - - - -
05/08:00am 15.5 CALM 0 4 1022.5 - 0.0 - Partly cloudy 5 - - - -
05/07:47am 15.4 WNW 4 5 1022.3 - 0.0 - Partly cloudy 5 - - - -
05/07:30am 14.7 WNW 5 6 1022.1 - 0.0 - Partly cloudy 10 - - - -
05/07:00am 14.2 WNW 6 7 1021.7 - 0.0 - Partly cloudy 10 - - - -
05/06:30am 14.3 WNW 5 6 1021.4 - 0.0 - Partly cloudy 10 - - - -
05/06:05am 13.8 W 6 7 1021.3 - 0.0 - Partly cloudy 10 - - - -
05/06:00am 14.0 W 7 7 1021.2 - 0.0 - Cloudy 10 - - - -
05/05:39am 14.7 WNW 3 4 1021.2 - 0.0 - Partly cloudy 10 - - - -
05/05:30am 14.4 WNW 3 5 1021.1 - 0.0 - Partly cloudy 10 - - - -
05/05:00am 14.8 WNW 4 5 1020.8 - 0.0 - Partly cloudy 10 - - - -
05/04:30am 15.0 W 5 6 1020.6 - 0.0 - Cloudy 10 - - - -
05/04:00am 15.3 WNW 4 5 1020.6 - 0.0 - Partly cloudy 10 - - - -
05/03:30am 14.8 WSW 4 5 1020.6 - 0.0 - Partly cloudy 10 - - - -
05/03:16am 14.8 WSW 4 6 1020.6 - 0.0 - Partly cloudy 10 - - - -
05/03:00am 14.9 W 4 5 1020.7 - 0.0 - Cloudy 10 - - - -
05/02:30am 14.7 W 4 5 1020.8 - 0.0 - Partly cloudy 10 - - - -
05/02:24am 14.5 WSW 4 5 1020.8 - 0.0 - Partly cloudy 10 - - - -
05/02:00am 15.0 W 3 4 1020.9 - 0.0 - Partly cloudy 10 - - - -
05/01:45am 15.5 W 4 4 1020.9 - 0.0 - Partly cloudy 10 - - - -
05/01:30am 15.3 WSW 4 5 1020.8 - 0.0 - Partly cloudy 10 - - - -
05/01:00am 15.0 SSW 1 3 1020.7 - 0.0 - Cloudy 10 - - - -
05/12:30am 14.5 S 1 3 1020.6 - 0.0 - Partly cloudy 10 - - - -
05/12:06am 14.2 SW 3 4 1020.6 - 0.0 - Partly cloudy 10 - - - -
05/12:00am 14.3 SSW 1 4 1020.6 - 0.0 - Partly cloudy 10 - - - -
 
Date/Time
EDT
Temp

°C
Wind Pressure Rain
since 9am
mm
Weather Cloud Vis
km
Sea
Height
m
Swell
Dir
 
Speed
knots
Gust
knots
hPa Trend Height
m
Period
s
Dir
04/11:30pm 14.4 CALM 0 0 1020.4 - 0.0 - Partly cloudy 10 - - - -
04/11:00pm 15.2 S 5 6 1020.5 - 0.0 - Partly cloudy 10 - - - -
04/10:30pm 15.9 S 5 6 1020.6 - 0.0 - - 10 - - - -
04/10:00pm 16.4 SSE 5 5 1020.4 - 0.0 - Partly cloudy 10 - - - -
04/09:30pm 16.9 SE 4 5 1020.1 - 0.0 - - 10 - - - -
04/09:00pm 18.1 ENE 4 5 1019.7 - 0.0 - - 10 - - - -
04/08:30pm 18.6 NE 5 7 1019.5 - 0.0 - - 10 - - - -
04/08:00pm 19.4 NNE 6 8 1019.2 - 0.0 - - 10 - - - -
04/07:30pm 20.0 NNE 5 7 1018.7 - 0.0 - - 10 - - - -
04/07:00pm 20.7 N 7 11 1018.5 - 0.0 - - 10 - - - -
04/06:30pm 21.0 N 8 10 1018.5 - 0.0 - - 10 - - - -
04/06:00pm 20.7 NNE 9 12 1018.2 - 0.0 - - 10 - - - -
04/05:30pm 21.1 NNE 10 13 1018.2 - 0.0 - - 10 - - - -
04/05:00pm 21.2 NNE 10 15 1018.3 - 0.0 - - 10 - - - -
04/04:30pm 21.7 NNE 12 15 1018.1 - 0.0 - - 10 - - - -
04/04:00pm 21.5 NNE 12 17 1018.2 - 0.0 - - 10 - - - -
04/03:30pm 21.6 NNE 13 16 1018.2 - 0.0 - - 10 - - - -
04/03:00pm 21.7 NNE 11 15 1018.3 - 0.0 - - 10 - - - -

Other Formats:

Comma delimited format used in spreadsheet applications
http://www.bom.gov.au/fwo/IDT60701/IDT60701.95957.axf

JavaScript Object Notation format (JSON) in row-major order
http://www.bom.gov.au/fwo/IDT60701/IDT60701.95957.json